AVA1449 SPJC-SEGU
Flight info
| Callsign | AVA1449 |
|---|---|
| Flight time | 1h 38m |
| Altitude | 40000 |
| Route | ISREN UL780 EVRED EVRED2 |
| Aircraft | MD11/H-SDE1E2E3FGHIJ2J3J4J5M1RWXY/LB1D1 |
Departure
| Time | 2026-05-06 03:30 |
|---|---|
| Airport | Jorge Chávez International Airport (SPJC) |
Arrival
| Time | 2026-05-06 05:08 |
|---|---|
| Airport | José Joaquín de Olmedo International Airport (SEGU) |
| Time | Latitude | Longitude | Altitude | Speed | Heading |
|---|---|---|---|---|---|
| 2026-05-06 02:53 | -12.02358 | -77.10938 | 113 ft | 0 kts | 63° |
| 2026-05-06 03:20 | -12.02362 | -77.10945 | 111 ft | 4 kts | 64° |
| 2026-05-06 03:20 | -12.02374 | -77.10970 | 110 ft | 4 kts | 65° |
| 2026-05-06 03:20 | -12.02385 | -77.10995 | 111 ft | 3 kts | 63° |
| 2026-05-06 03:21 | -12.02394 | -77.11013 | 111 ft | 4 kts | 45° |
| 2026-05-06 03:21 | -12.02406 | -77.11023 | 109 ft | 4 kts | 348° |
| 2026-05-06 03:21 | -12.02427 | -77.11015 | 111 ft | 4 kts | 334° |
| 2026-05-06 03:21 | -12.02433 | -77.11012 | 111 ft | 3 kts | 334° |
| 2026-05-06 03:23 | -12.02429 | -77.11013 | 113 ft | 3 kts | 334° |
| 2026-05-06 03:23 | -12.02393 | -77.11031 | 111 ft | 8 kts | 334° |
| 2026-05-06 03:24 | -12.02337 | -77.11059 | 111 ft | 12 kts | 334° |
| 2026-05-06 03:24 | -12.02252 | -77.11099 | 109 ft | 15 kts | 336° |
| 2026-05-06 03:24 | -12.02180 | -77.11113 | 108 ft | 10 kts | 357° |
| 2026-05-06 03:24 | -12.02112 | -77.11132 | 106 ft | 12 kts | 333° |
| 2026-05-06 03:25 | -12.02035 | -77.11170 | 108 ft | 15 kts | 334° |
| 2026-05-06 03:25 | -12.01946 | -77.11232 | 102 ft | 16 kts | 310° |
| 2026-05-06 03:25 | -12.01895 | -77.11326 | 102 ft | 16 kts | 299° |
| 2026-05-06 03:25 | -12.01813 | -77.11405 | 99 ft | 18 kts | 333° |
| 2026-05-06 03:26 | -12.01708 | -77.11458 | 96 ft | 21 kts | 334° |
| 2026-05-06 03:26 | -12.01574 | -77.11524 | 93 ft | 24 kts | 334° |
| 2026-05-06 03:26 | -12.01417 | -77.11602 | 92 ft | 26 kts | 334° |
| 2026-05-06 03:26 | -12.01244 | -77.11688 | 89 ft | 29 kts | 334° |
| 2026-05-06 03:27 | -12.01056 | -77.11781 | 85 ft | 31 kts | 334° |
| 2026-05-06 03:27 | -12.00858 | -77.11879 | 67 ft | 32 kts | 334° |
| 2026-05-06 03:27 | -12.00709 | -77.11959 | 64 ft | 21 kts | 321° |
| 2026-05-06 03:27 | -12.00695 | -77.12076 | 61 ft | 17 kts | 247° |
| 2026-05-06 03:28 | -12.00732 | -77.12139 | 59 ft | 2 kts | 223° |
| 2026-05-06 03:28 | -12.00737 | -77.12140 | 60 ft | 0 kts | 199° |
| 2026-05-06 03:28 | -12.00739 | -77.12139 | 60 ft | 0 kts | 188° |
| 2026-05-06 03:28 | -12.00741 | -77.12138 | 61 ft | 0 kts | 174° |
| 2026-05-06 03:29 | -12.00756 | -77.12134 | 60 ft | 4 kts | 167° |
| 2026-05-06 03:29 | -12.00784 | -77.12124 | 63 ft | 4 kts | 157° |
| 2026-05-06 03:29 | -12.00901 | -77.12067 | 64 ft | 63 kts | 153° |
| 2026-05-06 03:29 | -12.01618 | -77.11713 | 92 ft | 164 kts | 153° |
| 2026-05-06 03:30 | -12.02752 | -77.11129 | 640 ft | 196 kts | 154° |
| 2026-05-06 03:30 | -12.04078 | -77.10517 | 1308 ft | 224 kts | 157° |
| 2026-05-06 03:30 | -12.05556 | -77.09768 | 1832 ft | 249 kts | 152° |
| 2026-05-06 03:30 | -12.07147 | -77.08940 | 2288 ft | 256 kts | 154° |
| 2026-05-06 03:31 | -12.08765 | -77.08142 | 2714 ft | 259 kts | 154° |
| 2026-05-06 03:31 | -12.10406 | -77.07339 | 3207 ft | 262 kts | 154° |
| 2026-05-06 03:31 | -12.12071 | -77.06541 | 3681 ft | 267 kts | 157° |
| 2026-05-06 03:31 | -12.13862 | -77.06060 | 4154 ft | 269 kts | 176° |
| 2026-05-06 03:32 | -12.15708 | -77.06328 | 4640 ft | 272 kts | 202° |
| 2026-05-06 03:32 | -12.17245 | -77.07428 | 5116 ft | 273 kts | 230° |
| 2026-05-06 03:32 | -12.18114 | -77.09145 | 5586 ft | 275 kts | 258° |
| 2026-05-06 03:32 | -12.18169 | -77.11092 | 6089 ft | 277 kts | 277° |
| 2026-05-06 03:33 | -12.17852 | -77.13046 | 6572 ft | 280 kts | 281° |
| 2026-05-06 03:33 | -12.17463 | -77.15000 | 7033 ft | 282 kts | 282° |
| 2026-05-06 03:33 | -12.17065 | -77.16970 | 7497 ft | 284 kts | 282° |
| 2026-05-06 03:33 | -12.16674 | -77.18951 | 7979 ft | 286 kts | 281° |
| 2026-05-06 03:34 | -12.16293 | -77.20926 | 8454 ft | 288 kts | 281° |
| 2026-05-06 03:34 | -12.15909 | -77.22945 | 8945 ft | 290 kts | 281° |
| 2026-05-06 03:34 | -12.15472 | -77.24950 | 9438 ft | 291 kts | 288° |
| 2026-05-06 03:34 | -12.14536 | -77.26769 | 9922 ft | 291 kts | 311° |
| 2026-05-06 03:35 | -12.13030 | -77.28167 | 10391 ft | 294 kts | 323° |
| 2026-05-06 03:35 | -12.11313 | -77.29419 | 10844 ft | 315 kts | 326° |
| 2026-05-06 03:35 | -12.09421 | -77.30730 | 11227 ft | 342 kts | 326° |
| 2026-05-06 03:35 | -12.07375 | -77.32141 | 11618 ft | 367 kts | 326° |
| 2026-05-06 03:36 | -12.05193 | -77.33657 | 12010 ft | 391 kts | 326° |
| 2026-05-06 03:36 | -12.02880 | -77.35275 | 12407 ft | 415 kts | 326° |
| 2026-05-06 03:36 | -12.00450 | -77.36985 | 12788 ft | 425 kts | 325° |
| 2026-05-06 03:36 | -11.98014 | -77.38706 | 13194 ft | 428 kts | 326° |
| 2026-05-06 03:37 | -11.95550 | -77.40449 | 13595 ft | 432 kts | 325° |
| 2026-05-06 03:37 | -11.93101 | -77.42183 | 13957 ft | 435 kts | 326° |
| 2026-05-06 03:37 | -11.90608 | -77.43948 | 14327 ft | 437 kts | 325° |
| 2026-05-06 03:37 | -11.88107 | -77.45719 | 14692 ft | 438 kts | 326° |
| 2026-05-06 03:38 | -11.85612 | -77.47484 | 15059 ft | 441 kts | 326° |
| 2026-05-06 03:38 | -11.83066 | -77.49256 | 15435 ft | 442 kts | 327° |
| 2026-05-06 03:38 | -11.80461 | -77.50954 | 15805 ft | 444 kts | 328° |
| 2026-05-06 03:38 | -11.77828 | -77.52604 | 16194 ft | 446 kts | 329° |
| 2026-05-06 03:39 | -11.75162 | -77.54250 | 16578 ft | 449 kts | 329° |
| 2026-05-06 03:39 | -11.72488 | -77.55897 | 16971 ft | 451 kts | 330° |
| 2026-05-06 03:39 | -11.69789 | -77.57563 | 17367 ft | 454 kts | 329° |
| 2026-05-06 03:39 | -11.67080 | -77.59239 | 17771 ft | 456 kts | 329° |
| 2026-05-06 03:40 | -11.64369 | -77.60920 | 18178 ft | 458 kts | 329° |
| 2026-05-06 03:40 | -11.61642 | -77.62614 | 18543 ft | 460 kts | 329° |
| 2026-05-06 03:40 | -11.58901 | -77.64317 | 18899 ft | 462 kts | 329° |
| 2026-05-06 03:40 | -11.56184 | -77.66005 | 19248 ft | 463 kts | 329° |
| 2026-05-06 03:41 | -11.53430 | -77.67716 | 19621 ft | 464 kts | 329° |
| 2026-05-06 03:41 | -11.50674 | -77.69428 | 19987 ft | 466 kts | 329° |
| 2026-05-06 03:41 | -11.47896 | -77.71152 | 20367 ft | 467 kts | 329° |
| 2026-05-06 03:41 | -11.45121 | -77.72876 | 20746 ft | 467 kts | 329° |
| 2026-05-06 03:42 | -11.42334 | -77.74604 | 21125 ft | 470 kts | 329° |
| 2026-05-06 03:42 | -11.39536 | -77.76339 | 21515 ft | 473 kts | 329° |
| 2026-05-06 03:42 | -11.36722 | -77.78084 | 21908 ft | 474 kts | 329° |
| 2026-05-06 03:42 | -11.33895 | -77.79837 | 22307 ft | 478 kts | 329° |
| 2026-05-06 03:43 | -11.31048 | -77.81602 | 22722 ft | 479 kts | 329° |
| 2026-05-06 03:43 | -11.28200 | -77.83368 | 23118 ft | 479 kts | 329° |
| 2026-05-06 03:43 | -11.25335 | -77.85143 | 23540 ft | 483 kts | 329° |
| 2026-05-06 03:43 | -11.22465 | -77.86921 | 23884 ft | 485 kts | 329° |
| 2026-05-06 03:44 | -11.19575 | -77.88710 | 24235 ft | 486 kts | 329° |
| 2026-05-06 03:44 | -11.16676 | -77.90505 | 24588 ft | 488 kts | 330° |
| 2026-05-06 03:44 | -11.13735 | -77.92246 | 24946 ft | 489 kts | 332° |
| 2026-05-06 03:44 | -11.10728 | -77.93904 | 25309 ft | 493 kts | 333° |
| 2026-05-06 03:45 | -11.07678 | -77.95526 | 25680 ft | 495 kts | 334° |
| 2026-05-06 03:45 | -11.04661 | -77.97111 | 26043 ft | 493 kts | 334° |
| 2026-05-06 03:45 | -11.01607 | -77.98714 | 26410 ft | 492 kts | 334° |
| 2026-05-06 03:45 | -10.98577 | -78.00310 | 26763 ft | 491 kts | 334° |
| 2026-05-06 03:46 | -10.95551 | -78.01911 | 27071 ft | 489 kts | 334° |
| 2026-05-06 03:46 | -10.92542 | -78.03508 | 27395 ft | 487 kts | 334° |
| 2026-05-06 03:46 | -10.89542 | -78.05103 | 27719 ft | 486 kts | 334° |
| 2026-05-06 03:46 | -10.86547 | -78.06695 | 28035 ft | 485 kts | 334° |
| 2026-05-06 03:47 | -10.83562 | -78.08283 | 28361 ft | 483 kts | 334° |
| 2026-05-06 03:47 | -10.80578 | -78.09869 | 28697 ft | 482 kts | 334° |
| 2026-05-06 03:47 | -10.77606 | -78.11448 | 29026 ft | 481 kts | 334° |
| 2026-05-06 03:47 | -10.74685 | -78.13000 | 29362 ft | 480 kts | 334° |
| 2026-05-06 03:48 | -10.71731 | -78.14568 | 29709 ft | 478 kts | 334° |
| 2026-05-06 03:48 | -10.68787 | -78.16131 | 30052 ft | 477 kts | 335° |
| 2026-05-06 03:48 | -10.65846 | -78.17692 | 30338 ft | 476 kts | 334° |
| 2026-05-06 03:48 | -10.62907 | -78.19252 | 30638 ft | 476 kts | 334° |
| 2026-05-06 03:49 | -10.59968 | -78.20811 | 30941 ft | 475 kts | 334° |
| 2026-05-06 03:49 | -10.57041 | -78.22363 | 31248 ft | 475 kts | 334° |
| 2026-05-06 03:49 | -10.54111 | -78.23917 | 31542 ft | 474 kts | 334° |
| 2026-05-06 03:49 | -10.51190 | -78.25465 | 31855 ft | 474 kts | 334° |
| 2026-05-06 03:50 | -10.48270 | -78.27013 | 32165 ft | 473 kts | 334° |
| 2026-05-06 03:50 | -10.45348 | -78.28561 | 32477 ft | 472 kts | 333° |
| 2026-05-06 03:50 | -10.42434 | -78.30105 | 32797 ft | 472 kts | 333° |
| 2026-05-06 03:50 | -10.39520 | -78.31648 | 33122 ft | 471 kts | 333° |
| 2026-05-06 03:51 | -10.36614 | -78.33184 | 33450 ft | 471 kts | 333° |
| 2026-05-06 03:51 | -10.33710 | -78.34720 | 33777 ft | 471 kts | 333° |
| 2026-05-06 03:51 | -10.30808 | -78.36255 | 34094 ft | 471 kts | 333° |
| 2026-05-06 03:51 | -10.27905 | -78.37791 | 34372 ft | 470 kts | 333° |
| 2026-05-06 03:52 | -10.25004 | -78.39325 | 34677 ft | 470 kts | 333° |
| 2026-05-06 03:52 | -10.22142 | -78.40840 | 34974 ft | 469 kts | 332° |
| 2026-05-06 03:52 | -10.19212 | -78.42389 | 35285 ft | 468 kts | 332° |
| 2026-05-06 03:52 | -10.16366 | -78.43894 | 35575 ft | 468 kts | 332° |
| 2026-05-06 03:53 | -10.13504 | -78.45407 | 35882 ft | 467 kts | 332° |
| 2026-05-06 03:53 | -10.10622 | -78.46931 | 36193 ft | 466 kts | 332° |
| 2026-05-06 03:53 | -10.07753 | -78.48447 | 36505 ft | 466 kts | 332° |
| 2026-05-06 03:53 | -10.04875 | -78.49968 | 36827 ft | 465 kts | 332° |
| 2026-05-06 03:54 | -10.02004 | -78.51485 | 37161 ft | 465 kts | 332° |
| 2026-05-06 03:54 | -9.99135 | -78.53000 | 37469 ft | 464 kts | 332° |
| 2026-05-06 03:54 | -9.96257 | -78.54519 | 37723 ft | 465 kts | 332° |
| 2026-05-06 03:54 | -9.93388 | -78.56035 | 37985 ft | 465 kts | 332° |
| 2026-05-06 03:55 | -9.90514 | -78.57551 | 38255 ft | 464 kts | 332° |
| 2026-05-06 03:55 | -9.87648 | -78.59064 | 38513 ft | 463 kts | 332° |
| 2026-05-06 03:55 | -9.84787 | -78.60574 | 38752 ft | 463 kts | 332° |
| 2026-05-06 03:55 | -9.81965 | -78.62062 | 38983 ft | 462 kts | 332° |
| 2026-05-06 03:56 | -9.79110 | -78.63568 | 39219 ft | 462 kts | 332° |
| 2026-05-06 03:56 | -9.76264 | -78.65068 | 39448 ft | 461 kts | 332° |
| 2026-05-06 03:56 | -9.73369 | -78.66474 | 39683 ft | 460 kts | 337° |
| 2026-05-06 03:56 | -9.70344 | -78.67554 | 39918 ft | 461 kts | 342° |
| 2026-05-06 03:57 | -9.64127 | -78.69256 | 39975 ft | 462 kts | 345° |
| 2026-05-06 03:57 | -9.57924 | -78.70853 | 39990 ft | 459 kts | 344° |
| 2026-05-06 03:58 | -9.51765 | -78.72502 | 39994 ft | 459 kts | 344° |
| 2026-05-06 03:58 | -9.45632 | -78.74178 | 39995 ft | 459 kts | 343° |
| 2026-05-06 03:59 | -9.39430 | -78.75881 | 39992 ft | 463 kts | 343° |
| 2026-05-06 03:59 | -9.33205 | -78.77589 | 39996 ft | 464 kts | 343° |
| 2026-05-06 04:00 | -9.26971 | -78.79297 | 39990 ft | 463 kts | 343° |
| 2026-05-06 04:00 | -9.20745 | -78.81002 | 39996 ft | 464 kts | 344° |
| 2026-05-06 04:01 | -9.14520 | -78.82706 | 39984 ft | 463 kts | 344° |
| 2026-05-06 04:01 | -9.08320 | -78.84402 | 39977 ft | 463 kts | 344° |
| 2026-05-06 04:02 | -9.02097 | -78.86105 | 39976 ft | 463 kts | 344° |
| 2026-05-06 04:02 | -8.95883 | -78.87804 | 39977 ft | 462 kts | 344° |
| 2026-05-06 04:03 | -8.89671 | -78.89500 | 39978 ft | 462 kts | 343° |
| 2026-05-06 04:03 | -8.83456 | -78.91197 | 39980 ft | 463 kts | 343° |
| 2026-05-06 04:04 | -8.77231 | -78.92897 | 39984 ft | 462 kts | 343° |
| 2026-05-06 04:04 | -8.71062 | -78.94581 | 39980 ft | 462 kts | 343° |
| 2026-05-06 04:05 | -8.64825 | -78.96284 | 39982 ft | 462 kts | 343° |
| 2026-05-06 04:05 | -8.58658 | -78.97967 | 39985 ft | 462 kts | 343° |
| 2026-05-06 04:06 | -8.52450 | -78.99660 | 39976 ft | 462 kts | 344° |
| 2026-05-06 04:06 | -8.46235 | -79.01355 | 39977 ft | 462 kts | 344° |
| 2026-05-06 04:07 | -8.40027 | -79.03047 | 39977 ft | 462 kts | 344° |
| 2026-05-06 04:07 | -8.34863 | -79.04454 | 39974 ft | 462 kts | 344° |
| 2026-05-06 04:08 | -8.28679 | -79.06139 | 39976 ft | 462 kts | 343° |
| 2026-05-06 04:08 | -8.22456 | -79.07833 | 39968 ft | 462 kts | 343° |
| 2026-05-06 04:09 | -8.16242 | -79.09525 | 39967 ft | 462 kts | 343° |
| 2026-05-06 04:09 | -8.09946 | -79.10900 | 39967 ft | 464 kts | 350° |
| 2026-05-06 04:10 | -8.03572 | -79.11717 | 39964 ft | 464 kts | 352° |
| 2026-05-06 04:10 | -7.97152 | -79.12467 | 39970 ft | 464 kts | 352° |
| 2026-05-06 04:11 | -7.90730 | -79.13258 | 39966 ft | 464 kts | 352° |
| 2026-05-06 04:11 | -7.84318 | -79.14071 | 39973 ft | 464 kts | 352° |
| 2026-05-06 04:12 | -7.77897 | -79.14889 | 39975 ft | 464 kts | 352° |
| 2026-05-06 04:12 | -7.71486 | -79.15706 | 39984 ft | 464 kts | 352° |
| 2026-05-06 04:13 | -7.65076 | -79.16521 | 39989 ft | 464 kts | 352° |
| 2026-05-06 04:13 | -7.58665 | -79.17335 | 39991 ft | 464 kts | 352° |
| 2026-05-06 04:14 | -7.52242 | -79.18152 | 39986 ft | 464 kts | 352° |
| 2026-05-06 04:14 | -7.45881 | -79.18959 | 39990 ft | 464 kts | 351° |
| 2026-05-06 04:15 | -7.39454 | -79.19776 | 39995 ft | 465 kts | 352° |
| 2026-05-06 04:15 | -7.33037 | -79.20590 | 39997 ft | 465 kts | 352° |
| 2026-05-06 04:16 | -7.26607 | -79.21406 | 40004 ft | 465 kts | 351° |
| 2026-05-06 04:16 | -7.20183 | -79.22220 | 40007 ft | 465 kts | 352° |
| 2026-05-06 04:17 | -7.13757 | -79.23035 | 40022 ft | 465 kts | 352° |
| 2026-05-06 04:17 | -7.07378 | -79.23844 | 40015 ft | 465 kts | 351° |
| 2026-05-06 04:18 | -7.00937 | -79.24660 | 40028 ft | 466 kts | 351° |
| 2026-05-06 04:18 | -6.94484 | -79.25478 | 40031 ft | 466 kts | 351° |
| 2026-05-06 04:19 | -6.88043 | -79.26294 | 40032 ft | 466 kts | 351° |
| 2026-05-06 04:19 | -6.81656 | -79.27103 | 40038 ft | 466 kts | 351° |
| 2026-05-06 04:20 | -6.75261 | -79.27913 | 39993 ft | 466 kts | 351° |
| 2026-05-06 04:20 | -6.68850 | -79.28724 | 40007 ft | 466 kts | 351° |
| 2026-05-06 04:21 | -6.62414 | -79.29538 | 40008 ft | 466 kts | 351° |
| 2026-05-06 04:21 | -6.55992 | -79.30352 | 40026 ft | 466 kts | 351° |
| 2026-05-06 04:22 | -6.49549 | -79.31166 | 40027 ft | 466 kts | 351° |
| 2026-05-06 04:23 | -6.39918 | -79.32384 | 40056 ft | 466 kts | 351° |
| 2026-05-06 04:23 | -6.33494 | -79.33195 | 40050 ft | 465 kts | 351° |
| 2026-05-06 04:24 | -6.27062 | -79.34007 | 40077 ft | 465 kts | 352° |
| 2026-05-06 04:24 | -6.20667 | -79.34815 | 40078 ft | 465 kts | 351° |
| 2026-05-06 04:25 | -6.14240 | -79.35628 | 40076 ft | 466 kts | 351° |
| 2026-05-06 04:25 | -6.07796 | -79.36441 | 40089 ft | 465 kts | 351° |
| 2026-05-06 04:26 | -6.01369 | -79.37252 | 40089 ft | 466 kts | 351° |
| 2026-05-06 04:26 | -5.94926 | -79.38066 | 40097 ft | 467 kts | 351° |
| 2026-05-06 04:27 | -5.88462 | -79.38882 | 40087 ft | 468 kts | 351° |
| 2026-05-06 04:27 | -5.82037 | -79.39691 | 40096 ft | 467 kts | 351° |
| 2026-05-06 04:28 | -5.75573 | -79.40507 | 40099 ft | 467 kts | 351° |
| 2026-05-06 04:28 | -5.69120 | -79.41321 | 40094 ft | 467 kts | 351° |
| 2026-05-06 04:29 | -5.62658 | -79.42135 | 40098 ft | 467 kts | 351° |
| 2026-05-06 04:29 | -5.56193 | -79.42950 | 40071 ft | 467 kts | 351° |
| 2026-05-06 04:30 | -5.49769 | -79.43756 | 40093 ft | 467 kts | 350° |
| 2026-05-06 04:30 | -5.43318 | -79.44570 | 40089 ft | 467 kts | 350° |
| 2026-05-06 04:31 | -5.36867 | -79.45383 | 40103 ft | 466 kts | 350° |
| 2026-05-06 04:31 | -5.30419 | -79.46194 | 40108 ft | 467 kts | 350° |
| 2026-05-06 04:32 | -5.23981 | -79.47007 | 40121 ft | 467 kts | 351° |
| 2026-05-06 04:32 | -5.17533 | -79.47819 | 40118 ft | 465 kts | 350° |
| 2026-05-06 04:33 | -5.11097 | -79.48629 | 40117 ft | 466 kts | 351° |
| 2026-05-06 04:33 | -5.04653 | -79.49438 | 40128 ft | 467 kts | 351° |
| 2026-05-06 04:34 | -4.98214 | -79.50248 | 40127 ft | 466 kts | 350° |
| 2026-05-06 04:34 | -4.91770 | -79.51064 | 40127 ft | 466 kts | 350° |
| 2026-05-06 04:35 | -4.85330 | -79.51874 | 40118 ft | 467 kts | 351° |
| 2026-05-06 04:35 | -4.78886 | -79.52681 | 40113 ft | 469 kts | 351° |
| 2026-05-06 04:36 | -4.72413 | -79.53494 | 40112 ft | 469 kts | 351° |
| 2026-05-06 04:36 | -4.65937 | -79.54308 | 40109 ft | 469 kts | 351° |
| 2026-05-06 04:37 | -4.59457 | -79.55122 | 40096 ft | 469 kts | 351° |
| 2026-05-06 04:37 | -4.52970 | -79.55935 | 40100 ft | 469 kts | 351° |
| 2026-05-06 04:38 | -4.46533 | -79.56756 | 40084 ft | 469 kts | 351° |
| 2026-05-06 04:38 | -4.40060 | -79.57595 | 40057 ft | 469 kts | 351° |
| 2026-05-06 04:39 | -4.33576 | -79.58436 | 40046 ft | 469 kts | 351° |
| 2026-05-06 04:39 | -4.27097 | -79.59274 | 40047 ft | 469 kts | 351° |
| 2026-05-06 04:40 | -4.20602 | -79.60113 | 40052 ft | 470 kts | 351° |
| 2026-05-06 04:40 | -4.14157 | -79.60946 | 40047 ft | 469 kts | 351° |
| 2026-05-06 04:41 | -4.07684 | -79.61782 | 40042 ft | 469 kts | 351° |
| 2026-05-06 04:41 | -4.01204 | -79.62619 | 40058 ft | 469 kts | 351° |
| 2026-05-06 04:42 | -3.94723 | -79.63456 | 40058 ft | 469 kts | 351° |
| 2026-05-06 04:42 | -3.88228 | -79.64295 | 39750 ft | 473 kts | 351° |
| 2026-05-06 04:42 | -3.84957 | -79.64718 | 39464 ft | 473 kts | 351° |
| 2026-05-06 04:43 | -3.81689 | -79.65140 | 39024 ft | 475 kts | 351° |
| 2026-05-06 04:43 | -3.78405 | -79.65563 | 38487 ft | 476 kts | 351° |
| 2026-05-06 04:43 | -3.75112 | -79.65985 | 37966 ft | 477 kts | 351° |
| 2026-05-06 04:43 | -3.71829 | -79.66409 | 37443 ft | 476 kts | 352° |
| 2026-05-06 04:44 | -3.68587 | -79.66829 | 36960 ft | 472 kts | 351° |
| 2026-05-06 04:44 | -3.65346 | -79.67248 | 36464 ft | 468 kts | 352° |
| 2026-05-06 04:44 | -3.62130 | -79.67665 | 35981 ft | 463 kts | 352° |
| 2026-05-06 04:44 | -3.58951 | -79.68075 | 35517 ft | 459 kts | 352° |
| 2026-05-06 04:45 | -3.55805 | -79.68481 | 35041 ft | 454 kts | 353° |
| 2026-05-06 04:45 | -3.52687 | -79.68883 | 34574 ft | 449 kts | 353° |
| 2026-05-06 04:45 | -3.49595 | -79.69283 | 33981 ft | 446 kts | 353° |
| 2026-05-06 04:45 | -3.46541 | -79.69677 | 33313 ft | 440 kts | 354° |
| 2026-05-06 04:46 | -3.43520 | -79.70068 | 32690 ft | 435 kts | 354° |
| 2026-05-06 04:46 | -3.40534 | -79.70453 | 32099 ft | 431 kts | 354° |
| 2026-05-06 04:46 | -3.37579 | -79.70834 | 31508 ft | 426 kts | 355° |
| 2026-05-06 04:46 | -3.34650 | -79.71213 | 30933 ft | 421 kts | 355° |
| 2026-05-06 04:47 | -3.31766 | -79.71586 | 30367 ft | 417 kts | 355° |
| 2026-05-06 04:47 | -3.28909 | -79.71954 | 29744 ft | 412 kts | 356° |
| 2026-05-06 04:47 | -3.26072 | -79.72319 | 29086 ft | 408 kts | 355° |
| 2026-05-06 04:47 | -3.23274 | -79.72679 | 28526 ft | 404 kts | 355° |
| 2026-05-06 04:48 | -3.20534 | -79.73031 | 27968 ft | 400 kts | 355° |
| 2026-05-06 04:48 | -3.17746 | -79.73390 | 27419 ft | 397 kts | 355° |
| 2026-05-06 04:48 | -3.15046 | -79.73738 | 26868 ft | 394 kts | 355° |
| 2026-05-06 04:48 | -3.12335 | -79.74087 | 26328 ft | 391 kts | 355° |
| 2026-05-06 04:49 | -3.09644 | -79.74434 | 25796 ft | 388 kts | 355° |
| 2026-05-06 04:49 | -3.06976 | -79.74778 | 25267 ft | 385 kts | 355° |
| 2026-05-06 04:49 | -3.04335 | -79.75118 | 24757 ft | 382 kts | 354° |
| 2026-05-06 04:49 | -3.01721 | -79.75454 | 24232 ft | 379 kts | 354° |
| 2026-05-06 04:50 | -2.99099 | -79.75792 | 23700 ft | 377 kts | 354° |
| 2026-05-06 04:50 | -2.96507 | -79.76126 | 23108 ft | 374 kts | 354° |
| 2026-05-06 04:50 | -2.93932 | -79.76458 | 22556 ft | 371 kts | 354° |
| 2026-05-06 04:50 | -2.91384 | -79.76786 | 22040 ft | 368 kts | 354° |
| 2026-05-06 04:51 | -2.88933 | -79.77102 | 21540 ft | 366 kts | 354° |
| 2026-05-06 04:51 | -2.87217 | -79.77323 | 21197 ft | 365 kts | 354° |
| 2026-05-06 04:51 | -2.84232 | -79.77705 | 20583 ft | 361 kts | 354° |
| 2026-05-06 04:51 | -2.81751 | -79.77960 | 20079 ft | 360 kts | 356° |
| 2026-05-06 04:52 | -2.79260 | -79.78164 | 19509 ft | 357 kts | 357° |
| 2026-05-06 04:52 | -2.77523 | -79.78295 | 19114 ft | 355 kts | 357° |
| 2026-05-06 04:53 | -2.75820 | -79.78419 | 18735 ft | 353 kts | 357° |
| 2026-05-06 04:54 | -2.73434 | -79.78594 | 18184 ft | 351 kts | 357° |
| 2026-05-06 04:54 | -2.71138 | -79.78765 | 17596 ft | 348 kts | 357° |
| 2026-05-06 04:54 | -2.68735 | -79.78945 | 17014 ft | 345 kts | 357° |
| 2026-05-06 04:54 | -2.66351 | -79.79125 | 16470 ft | 342 kts | 357° |
| 2026-05-06 04:55 | -2.63981 | -79.79304 | 15933 ft | 340 kts | 357° |
| 2026-05-06 04:55 | -2.61657 | -79.79480 | 15411 ft | 337 kts | 358° |
| 2026-05-06 04:55 | -2.59340 | -79.79655 | 14904 ft | 334 kts | 358° |
| 2026-05-06 04:55 | -2.57174 | -79.79819 | 14435 ft | 333 kts | 358° |
| 2026-05-06 04:56 | -2.55016 | -79.79982 | 13952 ft | 330 kts | 358° |
| 2026-05-06 04:56 | -2.52758 | -79.80153 | 13419 ft | 328 kts | 358° |
| 2026-05-06 04:56 | -2.50559 | -79.80319 | 12906 ft | 325 kts | 358° |
| 2026-05-06 04:56 | -2.49073 | -79.80431 | 12573 ft | 322 kts | 358° |
| 2026-05-06 04:57 | -2.46847 | -79.80599 | 12079 ft | 318 kts | 357° |
| 2026-05-06 04:57 | -2.44640 | -79.80766 | 11593 ft | 318 kts | 357° |
| 2026-05-06 04:57 | -2.42476 | -79.80929 | 11115 ft | 315 kts | 357° |
| 2026-05-06 04:57 | -2.40297 | -79.81094 | 10643 ft | 313 kts | 357° |
| 2026-05-06 04:58 | -2.38143 | -79.81257 | 10265 ft | 309 kts | 357° |
| 2026-05-06 04:58 | -2.36048 | -79.81416 | 10035 ft | 297 kts | 357° |
| 2026-05-06 04:58 | -2.34007 | -79.81572 | 9594 ft | 291 kts | 357° |
| 2026-05-06 04:58 | -2.31997 | -79.81723 | 9127 ft | 288 kts | 356° |
| 2026-05-06 04:59 | -2.30007 | -79.81874 | 8703 ft | 285 kts | 356° |
| 2026-05-06 04:59 | -2.28033 | -79.82022 | 8259 ft | 284 kts | 356° |
| 2026-05-06 04:59 | -2.26063 | -79.82171 | 7836 ft | 283 kts | 356° |
| 2026-05-06 04:59 | -2.24104 | -79.82319 | 7416 ft | 280 kts | 356° |
| 2026-05-06 05:00 | -2.22190 | -79.82195 | 7037 ft | 276 kts | 17° |
| 2026-05-06 05:00 | -2.20427 | -79.81454 | 6692 ft | 273 kts | 28° |
| 2026-05-06 05:00 | -2.18829 | -79.80566 | 6339 ft | 253 kts | 30° |
| 2026-05-06 05:00 | -2.17290 | -79.79666 | 5975 ft | 256 kts | 31° |
| 2026-05-06 05:01 | -2.15774 | -79.78775 | 5630 ft | 257 kts | 31° |
| 2026-05-06 05:01 | -2.14231 | -79.77871 | 5280 ft | 256 kts | 31° |
| 2026-05-06 05:01 | -2.12714 | -79.76984 | 4938 ft | 244 kts | 31° |
| 2026-05-06 05:01 | -2.11323 | -79.76174 | 4612 ft | 220 kts | 30° |
| 2026-05-06 05:02 | -2.10042 | -79.75429 | 4372 ft | 213 kts | 30° |
| 2026-05-06 05:02 | -2.08769 | -79.74688 | 4101 ft | 210 kts | 30° |
| 2026-05-06 05:02 | -2.07480 | -79.73999 | 3845 ft | 210 kts | 22° |
| 2026-05-06 05:02 | -2.06072 | -79.73665 | 3583 ft | 208 kts | 1° |
| 2026-05-06 05:03 | -2.04651 | -79.73885 | 3324 ft | 206 kts | 337° |
| 2026-05-06 05:03 | -2.03461 | -79.74639 | 3070 ft | 202 kts | 313° |
| 2026-05-06 05:03 | -2.02659 | -79.75721 | 2858 ft | 182 kts | 300° |
| 2026-05-06 05:03 | -2.02036 | -79.76775 | 2828 ft | 179 kts | 296° |
| 2026-05-06 05:04 | -2.01630 | -79.77928 | 2744 ft | 177 kts | 276° |
| 2026-05-06 05:04 | -2.01707 | -79.79136 | 2618 ft | 175 kts | 252° |
| 2026-05-06 05:04 | -2.02279 | -79.80202 | 2394 ft | 176 kts | 229° |
| 2026-05-06 05:04 | -2.03234 | -79.80950 | 2139 ft | 175 kts | 213° |
| 2026-05-06 05:05 | -2.04266 | -79.81591 | 1981 ft | 173 kts | 212° |
| 2026-05-06 05:05 | -2.05302 | -79.82224 | 1985 ft | 175 kts | 212° |
| 2026-05-06 05:05 | -2.06313 | -79.82833 | 1924 ft | 156 kts | 211° |
| 2026-05-06 05:05 | -2.07203 | -79.83362 | 1747 ft | 145 kts | 211° |
| 2026-05-06 05:06 | -2.08057 | -79.83872 | 1650 ft | 143 kts | 211° |
| 2026-05-06 05:06 | -2.08887 | -79.84388 | 1581 ft | 143 kts | 212° |
| 2026-05-06 05:06 | -2.09740 | -79.84905 | 1395 ft | 143 kts | 210° |
| 2026-05-06 05:06 | -2.10605 | -79.85402 | 1175 ft | 142 kts | 208° |
| 2026-05-06 05:07 | -2.11473 | -79.85886 | 948 ft | 143 kts | 210° |
| 2026-05-06 05:07 | -2.12301 | -79.86379 | 694 ft | 137 kts | 210° |
| 2026-05-06 05:07 | -2.13143 | -79.86873 | 469 ft | 141 kts | 208° |
| 2026-05-06 05:07 | -2.13986 | -79.87345 | 242 ft | 136 kts | 208° |
| 2026-05-06 05:08 | -2.14788 | -79.87811 | 62 ft | 131 kts | 208° |
| 2026-05-06 05:08 | -2.15496 | -79.88218 | 28 ft | 98 kts | 210° |
| 2026-05-06 05:08 | -2.15970 | -79.88494 | 29 ft | 62 kts | 211° |
| 2026-05-06 05:08 | -2.16250 | -79.88657 | 30 ft | 34 kts | 210° |
| 2026-05-06 05:09 | -2.16343 | -79.88746 | 30 ft | 8 kts | 258° |
| 2026-05-06 05:09 | -2.16339 | -79.88753 | 30 ft | 1 kts | 294° |
| 2026-05-06 05:09 | -2.16333 | -79.88767 | 30 ft | 4 kts | 295° |
| 2026-05-06 05:09 | -2.16313 | -79.88785 | 30 ft | 4 kts | 332° |
| 2026-05-06 05:10 | -2.16276 | -79.88780 | 30 ft | 7 kts | 24° |
| 2026-05-06 05:10 | -2.16227 | -79.88751 | 30 ft | 10 kts | 30° |
| 2026-05-06 05:10 | -2.16153 | -79.88709 | 30 ft | 14 kts | 30° |
| 2026-05-06 05:10 | -2.16059 | -79.88656 | 29 ft | 17 kts | 29° |
| 2026-05-06 05:11 | -2.15946 | -79.88590 | 29 ft | 20 kts | 31° |
| 2026-05-06 05:11 | -2.15823 | -79.88519 | 30 ft | 21 kts | 29° |
| 2026-05-06 05:11 | -2.15696 | -79.88448 | 29 ft | 23 kts | 29° |
| 2026-05-06 05:11 | -2.15557 | -79.88368 | 28 ft | 23 kts | 30° |
| 2026-05-06 05:12 | -2.15419 | -79.88289 | 29 ft | 24 kts | 30° |
| 2026-05-06 05:12 | -2.15294 | -79.88225 | 29 ft | 15 kts | 8° |
| 2026-05-06 05:12 | -2.15259 | -79.88235 | 29 ft | 3 kts | 326° |
| 2026-05-06 05:12 | -2.15248 | -79.88250 | 29 ft | 3 kts | 301° |
| 2026-05-06 05:13 | -2.15237 | -79.88271 | 29 ft | 4 kts | 299° |
| 2026-05-06 05:13 | -2.15220 | -79.88301 | 29 ft | 6 kts | 299° |
| 2026-05-06 05:13 | -2.15199 | -79.88337 | 28 ft | 7 kts | 299° |
| 2026-05-06 05:13 | -2.15169 | -79.88381 | 29 ft | 8 kts | 316° |
| 2026-05-06 05:14 | -2.15122 | -79.88387 | 29 ft | 7 kts | 21° |
| 2026-05-06 05:14 | -2.15077 | -79.88371 | 29 ft | 7 kts | 5° |
| 2026-05-06 05:14 | -2.15041 | -79.88392 | 29 ft | 6 kts | 310° |
| 2026-05-06 05:14 | -2.15025 | -79.88418 | 29 ft | 4 kts | 300° |
| 2026-05-06 05:15 | -2.15024 | -79.88420 | 29 ft | 0 kts | 300° |